Time;durP1;ratioP1;P1;durP2;ratioP2;P2;SDS_P1;SDS_P2;PMS_P1;PMS_P2;Temp;Humidity;BMP_temperature;BMP_pressure;BME280_temperature;BME280_humidity;BME280_pressure;Samples;Min_cycle;Max_cycle;Signal;HPM_P1;HPM_P2
2023/03/11 00:00:12;;;;;;;1.67;1.30;;;;;;;3.34;75.78;96996.78;5058644;28;20192;-82
2023/03/11 00:02:38;;;;;;;1.30;1.20;;;;;;;3.33;76.94;97002.94;5058746;28;20278;-82
2023/03/11 00:05:05;;;;;;;1.00;1.00;;;;;;;3.30;76.42;97008.31;5050359;28;20227;-82
2023/03/11 00:07:32;;;;;;;2.00;1.20;;;;;;;3.28;73.30;96981.47;5034405;28;20210;-82
2023/03/11 00:09:59;;;;;;;1.33;1.23;;;;;;;3.24;74.46;97010.47;5034118;28;20293;-82
2023/03/11 00:12:25;;;;;;;1.40;1.30;;;;;;;3.15;75.59;97006.63;5034468;28;20225;-82
2023/03/11 00:14:52;;;;;;;2.83;1.17;;;;;;;3.17;76.32;97030.03;5034180;28;20234;-82
2023/03/11 00:17:20;;;;;;;1.30;1.20;;;;;;;3.12;76.23;97030.28;5034179;28;20219;-82
2023/03/11 00:19:46;;;;;;;1.63;1.10;;;;;;;3.05;77.08;97042.00;5033875;28;20214;-82
2023/03/11 00:22:12;;;;;;;1.23;1.17;;;;;;;3.01;78.15;97056.13;5034216;28;20215;-82
2023/03/11 00:24:42;;;;;;;1.50;1.40;;;;;;;2.95;77.91;97063.47;5034100;28;20323;-82
2023/03/11 00:27:09;;;;;;;1.83;1.60;;;;;;;2.93;78.77;97068.78;5033927;28;20251;-82
2023/03/11 00:29:35;;;;;;;1.50;1.40;;;;;;;2.90;79.52;97065.50;5033744;28;20205;-82
2023/03/11 00:32:02;;;;;;;1.33;1.23;;;;;;;2.88;79.30;97062.97;5033835;28;20208;-82
2023/03/11 00:34:29;;;;;;;1.50;1.30;;;;;;;2.86;79.08;97062.22;5033587;28;20234;-81
2023/03/11 00:36:56;;;;;;;1.43;1.33;;;;;;;2.84;79.39;97058.88;5034008;28;20207;-82
2023/03/11 00:39:23;;;;;;;1.60;1.50;;;;;;;2.84;80.43;97069.31;5033483;28;20703;-82
2023/03/11 00:41:50;;;;;;;2.80;1.67;;;;;;;2.83;79.49;97057.19;5033911;28;20236;-82
2023/03/11 00:46:47;;;;;;;2.17;1.40;;;;;;;2.83;80.59;97066.78;5055272;28;20243;-84
2023/03/11 00:49:14;;;;;;;1.90;1.60;;;;;;;2.86;80.14;97066.59;5054603;28;20223;-84
2023/03/11 00:51:42;;;;;;;3.37;1.63;;;;;;;2.88;80.53;97056.94;5054907;28;20206;-83
2023/03/11 00:54:08;;;;;;;2.50;1.53;;;;;;;2.89;80.39;97076.88;5057935;28;20215;-84
2023/03/11 00:56:35;;;;;;;1.53;1.40;;;;;;;2.93;80.94;97079.22;5053195;28;20234;-84
2023/03/11 00:59:01;;;;;;;2.17;1.57;;;;;;;2.91;81.23;97095.88;5055066;28;20209;-84
2023/03/11 01:01:28;;;;;;;2.30;1.60;;;;;;;2.90;79.88;97074.19;5058052;28;20215;-83
2023/03/11 01:03:54;;;;;;;1.60;1.50;;;;;;;2.89;80.75;97089.91;5058228;28;20224;-84
2023/03/11 01:06:21;;;;;;;1.90;1.67;;;;;;;2.89;80.83;97092.53;5055707;28;20241;-84
2023/03/11 01:08:49;;;;;;;4.20;1.80;;;;;;;2.81;80.35;97094.72;5033536;28;20208;-84
2023/03/11 01:11:15;;;;;;;2.17;1.63;;;;;;;2.69;81.10;97088.41;5033153;28;20209;-84
2023/03/11 01:13:41;;;;;;;2.50;1.60;;;;;;;2.63;81.89;97095.72;5033271;28;20233;-84
2023/03/11 01:16:08;;;;;;;1.33;1.23;;;;;;;2.52;82.83;97093.69;5033384;28;20230;-85
2023/03/11 01:18:35;;;;;;;2.67;1.90;;;;;;;2.47;82.66;97100.94;5033234;28;20205;-84
2023/03/11 01:21:01;;;;;;;2.70;1.83;;;;;;;2.40;83.07;97115.19;5033055;28;20237;-84
2023/03/11 01:23:28;;;;;;;1.80;1.60;;;;;;;2.37;82.45;97109.31;5033367;28;20209;-85
2023/03/11 01:25:56;;;;;;;3.07;1.77;;;;;;;2.39;83.17;97102.25;5033239;28;20226;-85
2023/03/11 01:28:23;;;;;;;2.50;1.93;;;;;;;2.43;83.60;97119.41;5033010;28;20205;-85
2023/03/11 01:30:49;;;;;;;1.93;1.73;;;;;;;2.45;83.63;97118.41;5032948;28;20610;-84
2023/03/11 01:33:19;;;;;;;2.77;2.03;;;;;;;2.46;83.11;97114.03;5033150;28;20217;-85
2023/03/11 01:35:47;;;;;;;2.10;1.80;;;;;;;2.46;82.91;97125.31;5032865;28;20234;-84
2023/03/11 01:38:16;;;;;;;2.30;1.47;;;;;;;2.47;82.70;97111.38;5033143;28;20675;-84
2023/03/11 01:40:44;;;;;;;3.17;1.50;;;;;;;2.49;82.87;97140.78;5041540;28;20205;-84
2023/03/11 01:43:44;;;;;;;1.63;1.43;;;;;;;2.47;83.22;97141.81;5057348;28;20206;-84
2023/03/11 01:46:16;;;;;;;4.00;1.40;;;;;;;2.48;83.72;97120.88;5056031;28;20269;-84
2023/03/11 01:48:46;;;;;;;1.83;1.53;;;;;;;2.46;83.37;97140.13;5057804;28;20194;-84
2023/03/11 01:51:12;;;;;;;2.53;1.50;;;;;;;2.47;83.10;97120.94;5058162;28;20195;-84
2023/03/11 01:53:40;;;;;;;3.20;1.60;;;;;;;2.45;83.29;97107.97;5058533;28;20194;-85
2023/03/11 01:56:08;;;;;;;1.50;1.40;;;;;;;2.40;83.42;97120.41;5054339;28;20226;-83
2023/03/11 01:58:39;;;;;;;2.50;1.70;;;;;;;2.38;83.48;97100.59;5052383;28;20209;-84
2023/03/11 02:01:06;;;;;;;1.50;1.40;;;;;;;2.35;83.62;97106.81;5057585;28;20217;-84
2023/03/11 02:03:38;;;;;;;2.47;1.63;;;;;;;2.28;83.35;97108.03;5057777;28;20212;-85
2023/03/11 02:06:09;;;;;;;2.37;1.60;;;;;;;2.28;84.10;97121.06;5057494;28;20217;-84
2023/03/11 02:08:36;;;;;;;5.03;1.70;;;;;;;2.28;83.56;97121.06;5057295;28;20207;-84
2023/03/11 02:11:07;;;;;;;3.57;1.87;;;;;;;2.22;83.98;97110.97;5057041;28;20204;-84
2023/03/11 02:13:35;;;;;;;4.20;1.77;;;;;;;2.18;84.11;97125.09;5056837;28;20210;-83
2023/03/11 02:16:02;;;;;;;2.37;1.40;;;;;;;2.14;84.09;97123.56;5056219;28;20245;-84
2023/03/11 02:18:29;;;;;;;3.50;1.67;;;;;;;2.06;83.70;97136.16;5056855;28;20205;-84
2023/03/11 02:21:05;;;;;;;2.80;1.60;;;;;;;2.03;84.30;97146.72;5056874;28;20321;-83
2023/03/11 02:23:39;;;;;;;1.83;1.60;;;;;;;1.98;84.08;97135.72;5057346;28;20199;-84
2023/03/11 02:26:12;;;;;;;2.50;1.60;;;;;;;1.92;83.48;97133.41;5057572;28;20239;-84
2023/03/11 02:28:41;;;;;;;1.63;1.40;;;;;;;1.91;84.31;97147.34;5057656;28;20265;-83
2023/03/11 02:31:08;;;;;;;2.30;1.63;;;;;;;1.93;84.10;97145.50;5057454;28;20213;-84
2023/03/11 02:33:36;;;;;;;2.20;1.80;;;;;;;1.90;83.89;97134.41;5057567;28;20202;-84
2023/03/11 02:36:03;;;;;;;2.70;1.73;;;;;;;1.82;84.06;97163.44;5056979;28;20292;-85
2023/03/11 02:38:29;;;;;;;1.93;1.40;;;;;;;1.69;84.81;97157.16;5056406;28;20190;-84
2023/03/11 02:40:57;;;;;;;2.30;1.60;;;;;;;1.62;85.39;97163.59;5056572;28;20221;-84
2023/03/11 02:43:32;;;;;;;3.33;1.60;;;;;;;1.56;86.10;97161.28;5056567;28;20207;-84
2023/03/11 02:46:01;;;;;;;2.10;1.40;;;;;;;1.46;86.55;97177.41;5056903;28;20228;-83
2023/03/11 02:48:29;;;;;;;3.27;1.57;;;;;;;1.42;87.55;97174.13;5056416;28;20201;-84
2023/03/11 02:50:56;;;;;;;2.93;1.70;;;;;;;1.40;87.71;97162.09;5055393;28;20221;-84
2023/03/11 02:53:23;;;;;;;2.40;1.50;;;;;;;1.36;86.96;97163.19;5052859;28;20212;-84
2023/03/11 02:55:49;;;;;;;2.33;1.77;;;;;;;1.33;86.03;97164.16;5055710;28;20237;-84
2023/03/11 02:58:15;;;;;;;3.63;1.50;;;;;;;1.29;86.95;97162.63;5056053;28;20208;-85
2023/03/11 03:00:42;;;;;;;2.93;1.70;;;;;;;1.20;87.81;97163.06;5055625;28;20208;-85
2023/03/11 03:03:10;;;;;;;2.23;1.40;;;;;;;1.17;86.93;97158.00;5055498;28;20213;-85
2023/03/11 03:05:36;;;;;;;5.17;1.57;;;;;;;1.10;86.66;97151.41;5054449;28;20250;-84
2023/03/11 03:08:03;;;;;;;2.40;1.40;;;;;;;1.09;85.79;97167.94;5054429;28;20206;-84
2023/03/11 03:10:30;;;;;;;3.40;1.50;;;;;;;1.01;84.84;97167.47;5052575;28;20224;-85
2023/03/11 03:12:56;;;;;;;2.83;1.30;;;;;;;0.98;84.45;97170.19;5031635;28;20210;-85
2023/03/11 03:15:23;;;;;;;1.67;1.07;;;;;;;0.90;83.39;97163.66;5031364;28;20244;-83
2023/03/11 03:17:50;;;;;;;2.27;1.40;;;;;;;0.85;82.63;97179.47;5031878;28;20213;-84
2023/03/11 03:20:21;;;;;;;2.07;1.40;;;;;;;0.85;82.67;97184.69;5031226;28;20215;-85
2023/03/11 03:22:47;;;;;;;1.73;1.40;;;;;;;0.77;82.18;97184.19;5031466;28;20207;-84
2023/03/11 03:25:14;;;;;;;2.23;1.10;;;;;;;0.76;82.48;97182.53;5031504;28;20229;-84
2023/03/11 03:27:40;;;;;;;1.50;1.27;;;;;;;0.74;81.90;97179.13;5031451;28;20221;-85
2023/03/11 03:30:08;;;;;;;1.63;0.90;;;;;;;0.71;82.61;97171.47;5031137;28;20589;-85
2023/03/11 03:32:35;;;;;;;2.73;1.27;;;;;;;0.63;83.19;97185.75;5031681;28;20218;-85
2023/03/11 03:35:02;;;;;;;2.03;1.17;;;;;;;0.65;83.03;97179.56;5031472;28;20236;-85
2023/03/11 03:37:40;;;;;;;3.27;1.20;;;;;;;0.59;84.23;97185.03;5031174;28;20236;-85
2023/03/11 03:40:08;;;;;;;2.10;1.30;;;;;;;0.60;82.54;97186.72;5030964;28;20238;-83
2023/03/11 03:42:35;;;;;;;1.83;1.23;;;;;;;0.55;83.81;97188.66;5031098;28;20565;-85
2023/03/11 03:45:02;;;;;;;2.47;1.40;;;;;;;0.54;83.72;97192.19;5030893;28;20255;-85
2023/03/11 03:47:28;;;;;;;2.20;1.30;;;;;;;0.57;83.36;97197.22;5033131;28;20209;-84
2023/03/11 03:49:55;;;;;;;3.27;1.37;;;;;;;0.58;83.57;97198.94;5030782;28;20227;-84
2023/03/11 03:52:21;;;;;;;2.60;1.43;;;;;;;0.56;84.08;97216.34;5031321;28;20371;-84
2023/03/11 03:54:49;;;;;;;1.63;1.10;;;;;;;0.64;83.57;97209.06;5030918;28;20232;-85
2023/03/11 03:57:24;;;;;;;2.03;1.23;;;;;;;0.66;83.64;97222.84;5031043;28;20863;-84
2023/03/11 03:59:50;;;;;;;1.53;1.20;;;;;;;0.71;84.17;97226.09;5030956;28;20210;-85
2023/03/11 04:02:17;;;;;;;2.73;1.10;;;;;;;0.77;83.97;97220.59;5030848;28;20209;-85
2023/03/11 04:04:43;;;;;;;1.73;1.07;;;;;;;0.82;83.18;97226.44;5031168;28;20245;-85
2023/03/11 04:07:10;;;;;;;2.30;1.20;;;;;;;0.92;82.85;97225.09;5030904;28;20209;-84
2023/03/11 04:09:39;;;;;;;3.83;1.30;;;;;;;0.93;82.26;97231.97;5030798;28;20234;-84
2023/03/11 04:12:07;;;;;;;2.33;1.53;;;;;;;1.00;82.92;97228.19;5031102;28;20218;-85
2023/03/11 04:14:34;;;;;;;1.90;1.30;;;;;;;0.95;81.72;97224.13;5030842;28;20232;-85
2023/03/11 04:17:00;;;;;;;3.40;1.43;;;;;;;0.91;81.86;97230.38;5030909;28;20232;-85
2023/03/11 04:19:27;;;;;;;3.47;1.50;;;;;;;0.85;83.07;97233.25;5032284;28;20221;-85
2023/03/11 04:21:53;;;;;;;2.40;1.17;;;;;;;0.80;82.87;97230.84;5034347;28;20221;-85
2023/03/11 04:24:19;;;;;;;3.50;1.30;;;;;;;0.70;83.37;97227.00;5034245;28;20205;-85
2023/03/11 04:26:46;;;;;;;2.57;1.43;;;;;;;0.61;84.11;97235.19;5034348;28;20200;-84
2023/03/11 04:29:14;;;;;;;4.20;1.40;;;;;;;0.56;84.44;97234.53;5033945;28;20216;-84
2023/03/11 04:31:40;;;;;;;2.93;1.23;;;;;;;0.47;85.08;97247.97;5034668;28;20315;-84
2023/03/11 04:34:07;;;;;;;2.90;1.20;;;;;;;0.43;86.55;97255.97;5034089;28;20678;-85
2023/03/11 04:36:33;;;;;;;3.03;1.50;;;;;;;0.35;86.45;97256.28;5034067;28;20238;-85
2023/03/11 04:39:00;;;;;;;2.80;1.27;;;;;;;0.29;88.00;97256.56;5034305;28;20207;-84
2023/03/11 04:41:26;;;;;;;3.60;1.20;;;;;;;0.25;88.29;97262.78;5034160;28;20217;-84
2023/03/11 04:43:53;;;;;;;1.87;1.50;;;;;;;0.21;88.65;97258.63;5033860;28;20205;-84
2023/03/11 04:46:21;;;;;;;5.33;1.30;;;;;;;0.22;89.26;97259.47;5033904;28;20614;-85
2023/03/11 04:48:47;;;;;;;1.30;1.20;;;;;;;0.18;89.77;97252.69;5034161;28;20580;-85
2023/03/11 04:51:14;;;;;;;1.63;1.30;;;;;;;0.23;89.26;97254.22;5033716;28;20218;-84
2023/03/11 04:53:40;;;;;;;2.80;1.43;;;;;;;0.20;89.36;97254.31;5033897;28;20591;-83
2023/03/11 04:56:07;;;;;;;3.57;1.40;;;;;;;0.17;89.85;97251.88;5033888;28;20264;-84
2023/03/11 04:58:34;;;;;;;3.97;1.50;;;;;;;0.21;89.90;97250.84;5033983;28;20210;-85
2023/03/11 05:01:00;;;;;;;3.00;1.60;;;;;;;0.22;89.90;97256.88;5033806;28;20231;-85
2023/03/11 05:03:28;;;;;;;2.57;1.40;;;;;;;0.29;89.53;97264.34;5033888;28;20216;-84
2023/03/11 05:05:56;;;;;;;2.13;1.40;;;;;;;0.30;89.80;97266.03;5034336;28;20234;-85
2023/03/11 05:08:23;;;;;;;2.33;1.30;;;;;;;0.33;89.95;97271.06;5034004;28;20753;-84
2023/03/11 05:10:51;;;;;;;2.63;1.43;;;;;;;0.40;89.19;97272.53;5047151;28;20217;-82
2023/03/11 05:13:18;;;;;;;2.00;1.30;;;;;;;0.38;89.82;97265.72;5052149;28;20229;-83
2023/03/11 05:15:44;;;;;;;5.20;1.50;;;;;;;0.34;89.83;97275.41;5051530;28;20228;-84
2023/03/11 05:18:11;;;;;;;2.47;1.50;;;;;;;0.25;90.52;97277.53;5033427;28;20211;-84
2023/03/11 05:20:39;;;;;;;2.13;1.30;;;;;;;0.31;90.69;97283.31;5033292;28;20216;-84
2023/03/11 05:23:05;;;;;;;4.87;1.50;;;;;;;0.22;90.04;97278.50;5033438;28;20500;-84
2023/03/11 05:25:32;;;;;;;2.50;1.50;;;;;;;0.18;90.88;97282.13;5033143;28;20236;-84
2023/03/11 05:27:58;;;;;;;2.07;1.40;;;;;;;0.10;91.45;97284.22;5033334;28;20205;-85
2023/03/11 05:30:25;;;;;;;2.60;1.40;;;;;;;0.08;91.82;97278.22;5032916;28;20219;-85
2023/03/11 05:32:52;;;;;;;1.80;1.47;;;;;;;0.07;92.56;97273.13;5033127;28;20217;-85
2023/03/11 05:35:19;;;;;;;3.63;1.60;;;;;;;0.07;92.10;97280.91;5033283;28;20234;-84
2023/03/11 05:37:48;;;;;;;2.33;1.47;;;;;;;0.00;93.08;97285.50;5033283;28;20239;-84
2023/03/11 05:40:16;;;;;;;3.33;1.50;;;;;;;0.01;93.24;97289.78;5032857;28;20214;-84
2023/03/11 05:42:42;;;;;;;1.70;1.40;;;;;;;-0.04;93.81;97296.09;5032790;28;20213;-85
2023/03/11 05:45:10;;;;;;;2.40;1.60;;;;;;;-0.06;93.25;97293.53;5032513;28;20744;-84
2023/03/11 05:47:36;;;;;;;2.27;1.47;;;;;;;-0.08;94.08;97287.56;5032592;28;20702;-83
2023/03/11 05:50:03;;;;;;;2.20;1.50;;;;;;;-0.08;94.14;97295.38;5032544;28;20221;-85
2023/03/11 05:52:31;;;;;;;6.17;1.60;;;;;;;-0.12;93.82;97293.78;5032887;28;20206;-85
2023/03/11 05:54:59;;;;;;;5.60;1.80;;;;;;;-0.11;93.79;97299.84;5032526;28;20233;-85
2023/03/11 05:57:26;;;;;;;2.33;1.50;;;;;;;-0.07;93.54;97297.03;5032793;28;20242;-84
2023/03/11 05:59:52;;;;;;;1.87;1.30;;;;;;;-0.10;93.83;97302.34;5032217;28;20231;-84
2023/03/11 06:02:19;;;;;;;5.13;1.77;;;;;;;-0.03;93.52;97296.03;5032762;28;20220;-84
2023/03/11 06:04:46;;;;;;;2.90;1.60;;;;;;;-0.01;92.66;97301.13;5032703;28;20234;-83
2023/03/11 06:07:14;;;;;;;4.50;1.73;;;;;;;-0.02;92.92;97297.72;5032411;28;20227;-84
2023/03/11 06:09:40;;;;;;;3.70;1.70;;;;;;;-0.07;93.15;97306.56;5032629;28;20618;-84
2023/03/11 06:12:08;;;;;;;3.43;1.50;;;;;;;-0.01;92.93;97316.72;5032376;28;20209;-85
2023/03/11 06:14:37;;;;;;;1.40;1.30;;;;;;;-0.02;92.47;97318.50;5032179;28;20727;-84
2023/03/11 06:17:04;;;;;;;4.17;1.53;;;;;;;-0.02;92.88;97315.88;5032304;28;20721;-84
2023/03/11 06:19:30;;;;;;;4.17;1.40;;;;;;;0.04;92.90;97322.56;5032011;28;20614;-84
2023/03/11 06:21:57;;;;;;;3.37;1.73;;;;;;;0.06;91.99;97315.56;5032120;28;20201;-84
2023/03/11 06:24:23;;;;;;;2.13;1.50;;;;;;;0.14;92.24;97316.09;5032080;28;20220;-82
2023/03/11 06:26:51;;;;;;;1.73;1.40;;;;;;;0.20;91.19;97303.69;5032176;28;20209;-83
2023/03/11 06:29:20;;;;;;;2.90;1.60;;;;;;;0.32;90.93;97313.56;5031995;28;20224;-83
2023/03/11 06:31:47;;;;;;;4.17;1.47;;;;;;;0.42;89.45;97301.88;5032156;28;20215;-84
2023/03/11 06:34:13;;;;;;;5.57;1.70;;;;;;;0.50;88.99;97312.78;5032535;28;20245;-85
2023/03/11 06:36:40;;;;;;;9.10;1.80;;;;;;;0.48;88.64;97312.03;5032254;28;20235;-84
2023/03/11 06:39:07;;;;;;;4.87;1.60;;;;;;;0.48;88.08;97317.22;5032291;28;20221;-84
2023/03/11 06:41:34;;;;;;;2.57;1.53;;;;;;;0.52;87.92;97321.41;5031775;28;20283;-84
2023/03/11 06:44:01;;;;;;;3.10;1.80;;;;;;;0.53;87.47;97328.28;5032001;28;20212;-85
2023/03/11 06:46:29;;;;;;;8.07;2.20;;;;;;;0.52;87.71;97331.78;5046364;22;20290;-79
2023/03/11 06:48:55;;;;;;;4.37;1.67;;;;;;;0.55;88.25;97334.25;5031216;28;20209;-79
2023/03/11 06:51:22;;;;;;;3.67;1.47;;;;;;;0.56;88.30;97337.69;5031187;28;20205;-79
2023/03/11 06:53:50;;;;;;;3.33;1.43;;;;;;;0.72;87.22;97346.53;5031465;28;20211;-79
2023/03/11 06:56:17;;;;;;;3.47;1.40;;;;;;;0.80;86.18;97340.09;5031445;28;20258;-79
2023/03/11 06:58:44;;;;;;;1.90;1.77;;;;;;;0.87;85.94;97346.69;5031370;28;20233;-79
2023/03/11 07:01:13;;;;;;;3.47;1.67;;;;;;;0.99;85.09;97348.75;5030957;28;20206;-78
2023/03/11 07:03:41;;;;;;;4.27;1.70;;;;;;;1.11;84.20;97345.63;5031175;28;20550;-79
2023/03/11 07:06:12;;;;;;;4.30;1.60;;;;;;;1.16;82.77;97354.06;5031211;28;20273;-79
2023/03/11 07:08:38;;;;;;;4.87;1.80;;;;;;;1.23;82.52;97350.28;5030416;28;20297;-79
2023/03/11 07:11:07;;;;;;;2.97;1.47;;;;;;;1.28;81.58;97348.31;5030963;28;20215;-79
2023/03/11 07:13:35;;;;;;;3.20;1.70;;;;;;;1.39;82.37;97346.09;5031027;28;20221;-80
2023/03/11 07:16:03;;;;;;;6.97;1.80;;;;;;;1.47;81.06;97341.38;5030797;28;20241;-79
2023/03/11 07:18:30;;;;;;;3.63;1.47;;;;;;;1.58;80.22;97344.31;5030832;28;20228;-79
2023/03/11 07:20:58;;;;;;;2.07;1.23;;;;;;;1.72;79.55;97343.69;5030891;28;20204;-80
2023/03/11 07:23:24;;;;;;;6.80;1.90;;;;;;;1.79;79.50;97345.09;5031242;28;20601;-79
2023/03/11 07:25:51;;;;;;;4.27;1.40;;;;;;;1.76;78.78;97345.22;5030940;28;20232;-80
2023/03/11 07:28:18;;;;;;;2.63;1.40;;;;;;;1.74;78.42;97352.25;5030825;28;20698;-79
2023/03/11 07:30:45;;;;;;;3.67;1.37;;;;;;;1.73;78.41;97351.41;5030805;28;20220;-80
2023/03/11 07:33:12;;;;;;;4.10;2.00;;;;;;;1.74;77.69;97362.69;5030741;28;20213;-79
2023/03/11 07:35:38;;;;;;;3.00;1.63;;;;;;;1.80;78.40;97362.41;5030867;28;20232;-79
2023/03/11 07:38:06;;;;;;;2.73;1.30;;;;;;;1.82;78.78;97351.00;5030825;28;20600;-79
2023/03/11 07:40:33;;;;;;;5.53;1.33;;;;;;;1.90;78.53;97369.69;5030595;28;20260;-79
2023/03/11 07:42:59;;;;;;;2.20;1.10;;;;;;;1.93;78.49;97372.19;5030516;28;20220;-79
2023/03/11 07:45:26;;;;;;;2.67;1.40;;;;;;;2.01;76.60;97364.84;5030506;28;20612;-79
2023/03/11 07:47:52;;;;;;;5.47;1.23;;;;;;;1.98;75.68;97357.19;5030949;28;20216;-80
2023/03/11 07:50:21;;;;;;;3.20;1.30;;;;;;;1.97;74.81;97365.88;5030671;28;20215;-80
2023/03/11 07:52:48;;;;;;;3.80;1.53;;;;;;;2.03;75.51;97363.00;5030893;28;20212;-80
2023/03/11 07:55:16;;;;;;;3.50;1.47;;;;;;;2.09;74.92;97362.69;5033565;28;20606;-80
2023/03/11 07:57:42;;;;;;;2.73;1.60;;;;;;;2.07;74.13;97367.16;5034384;28;20239;-80
2023/03/11 08:00:11;;;;;;;5.33;1.40;;;;;;;2.10;74.07;97369.63;5034089;28;20219;-80
2023/03/11 08:02:37;;;;;;;5.10;1.57;;;;;;;2.16;73.36;97371.94;5034376;28;20225;-79
2023/03/11 08:05:04;;;;;;;1.57;1.37;;;;;;;2.19;71.93;97363.94;5034368;28;20231;-77
2023/03/11 08:07:31;;;;;;;4.83;1.27;;;;;;;2.26;72.38;97365.34;5034239;28;20217;-78
2023/03/11 08:09:58;;;;;;;6.23;1.90;;;;;;;2.28;71.29;97366.09;5034043;28;20209;-78
2023/03/11 08:12:25;;;;;;;3.83;1.60;;;;;;;2.26;72.19;97370.56;5034482;28;20589;-78
2023/03/11 08:14:52;;;;;;;4.40;1.63;;;;;;;2.32;71.86;97372.03;5034290;28;20219;-78
2023/03/11 08:17:18;;;;;;;3.90;1.57;;;;;;;2.36;70.53;97365.72;5033979;28;20229;-78
2023/03/11 08:19:45;;;;;;;3.13;1.40;;;;;;;2.29;68.89;97367.81;5034130;28;20213;-78
2023/03/11 08:22:11;;;;;;;2.17;1.30;;;;;;;2.32;69.25;97372.03;5032377;28;20208;-78
2023/03/11 08:24:38;;;;;;;4.07;1.67;;;;;;;2.43;70.66;97380.16;5032094;28;20269;-78
2023/03/11 08:27:04;;;;;;;4.97;1.60;;;;;;;2.49;70.75;97385.94;5032650;28;20201;-77
2023/03/11 08:29:32;;;;;;;3.53;1.30;;;;;;;2.53;69.02;97382.25;5033058;28;20217;-77
2023/03/11 08:31:59;;;;;;;4.13;1.50;;;;;;;2.62;69.02;97387.00;5022583;28;20206;-83
2023/03/11 08:34:26;;;;;;;2.90;1.50;;;;;;;2.60;68.48;97391.47;5013666;28;20439;-81
2023/03/11 08:36:53;;;;;;;4.23;1.87;;;;;;;2.65;69.19;97392.09;5013940;28;20229;-77
2023/03/11 08:39:19;;;;;;;4.57;1.60;;;;;;;2.77;69.16;97391.47;5013557;28;20691;-77
2023/03/11 08:41:46;;;;;;;2.83;1.83;;;;;;;2.83;68.97;97396.38;5013992;28;20210;-78
2023/03/11 08:44:12;;;;;;;2.90;1.50;;;;;;;2.97;68.63;97399.13;5014012;28;20210;-79
2023/03/11 08:46:40;;;;;;;2.83;1.40;;;;;;;3.01;68.31;97379.75;5013680;28;20609;-78
2023/03/11 08:49:07;;;;;;;2.97;1.40;;;;;;;3.19;67.83;97391.88;5013578;28;20218;-78
2023/03/11 08:51:34;;;;;;;3.03;1.40;;;;;;;3.13;66.66;97384.34;5013709;28;20239;-77
2023/03/11 08:54:02;;;;;;;2.43;1.20;;;;;;;3.13;65.02;97378.31;5013473;28;20218;-77
2023/03/11 08:56:29;;;;;;;4.20;1.57;;;;;;;3.09;65.11;97382.84;5013841;28;20256;-78
2023/03/11 08:58:56;;;;;;;4.30;1.40;;;;;;;3.00;65.56;97396.34;5013526;28;20233;-78
2023/03/11 09:01:22;;;;;;;3.10;1.73;;;;;;;2.93;65.69;97394.97;5013487;28;20235;-77
2023/03/11 09:03:50;;;;;;;7.13;1.70;;;;;;;2.84;66.54;97398.06;5013435;28;20209;-78
2023/03/11 09:06:17;;;;;;;4.03;1.53;;;;;;;3.02;66.69;97397.13;5012969;28;20230;-82
2023/03/11 09:08:45;;;;;;;6.13;1.57;;;;;;;3.10;66.04;97394.97;5013410;28;20207;-80
2023/03/11 09:11:12;;;;;;;3.03;1.57;;;;;;;3.03;65.53;97393.59;5013366;28;20222;-81
2023/03/11 09:13:39;;;;;;;2.10;1.43;;;;;;;3.13;65.53;97393.97;5013575;28;20226;-78
2023/03/11 09:16:07;;;;;;;2.67;1.40;;;;;;;3.33;65.97;97396.38;5011835;28;20269;-78
2023/03/11 09:18:33;;;;;;;5.80;1.70;;;;;;;3.51;65.36;97396.28;5011817;28;20243;-77
2023/03/11 09:21:01;;;;;;;3.47;1.60;;;;;;;3.69;64.73;97400.53;5012853;28;20216;-82
2023/03/11 09:23:28;;;;;;;5.43;1.53;;;;;;;3.79;63.33;97391.25;5013195;28;20232;-81
2023/03/11 09:25:54;;;;;;;5.03;1.53;;;;;;;3.65;62.73;97383.31;5013072;28;20235;-81
2023/03/11 09:28:21;;;;;;;2.77;1.50;;;;;;;3.35;62.51;97390.16;5012947;28;20221;-81
2023/03/11 09:30:47;;;;;;;3.27;1.30;;;;;;;3.03;63.50;97404.03;5012822;28;20214;-81
2023/03/11 09:33:14;;;;;;;3.47;1.40;;;;;;;3.04;64.63;97415.31;5012746;28;20588;-82
2023/03/11 09:35:40;;;;;;;3.40;1.53;;;;;;;3.28;64.16;97409.69;5013505;28;20227;-81
2023/03/11 09:38:08;;;;;;;3.70;1.50;;;;;;;3.50;64.52;97410.25;5012619;28;20337;-82
2023/03/11 09:40:48;;;;;;;4.23;1.50;;;;;;;3.92;64.48;97407.13;5012207;28;20207;-81
2023/03/11 09:43:26;;;;;;;5.30;1.83;;;;;;;4.14;63.80;97407.59;5012877;28;20342;-80
2023/03/11 09:46:00;;;;;;;2.23;1.10;;;;;;;4.14;61.51;97382.31;5012064;28;20233;-80
2023/03/11 09:48:37;;;;;;;3.17;1.40;;;;;;;4.11;59.76;97377.28;5012501;28;20799;-81
2023/03/11 09:51:10;;;;;;;3.17;1.40;;;;;;;4.04;59.14;97362.81;5012581;28;20218;-80
2023/03/11 09:53:42;;;;;;;4.27;1.30;;;;;;;3.86;60.14;97376.91;5012508;28;20689;-82
2023/03/11 09:56:11;;;;;;;3.37;1.50;;;;;;;3.90;60.26;97388.91;5012304;28;20231;-81
2023/03/11 09:58:40;;;;;;;7.03;1.73;;;;;;;3.73;60.30;97388.97;5012770;28;20246;-81
2023/03/11 10:01:16;;;;;;;5.43;1.50;;;;;;;3.95;61.62;97386.88;5012199;28;20223;-81
2023/03/11 10:03:44;;;;;;;2.03;1.27;;;;;;;4.33;60.89;97393.44;5012394;28;20212;-86
2023/03/11 10:06:16;;;;;;;3.00;1.47;;;;;;;4.60;59.56;97380.56;5012177;28;20239;-83
2023/03/11 10:08:47;;;;;;;4.00;1.17;;;;;;;4.72;58.29;97370.25;5011009;28;20213;-81
2023/03/11 10:11:34;;;;;;;1.87;1.23;;;;;;;4.55;55.78;97343.34;5010730;28;20199;-82
2023/03/11 10:14:12;;;;;;;5.30;1.10;;;;;;;4.20;55.21;97332.28;5011433;28;20222;-78
2023/03/11 10:16:50;;;;;;;1.20;0.90;;;;;;;4.19;55.48;97350.66;5010517;28;20722;-76
2023/03/11 10:19:30;;;;;;;2.00;0.80;;;;;;;4.00;55.57;97343.03;5016337;28;20223;-76
2023/03/11 10:22:06;;;;;;;3.77;1.17;;;;;;;4.14;55.80;97345.72;5028644;28;20228;-76
2023/03/11 10:24:48;;;;;;;1.60;0.83;;;;;;;4.39;54.24;97335.53;5031000;28;20210;-78
2023/03/11 10:27:19;;;;;;;2.57;1.10;;;;;;;4.44;53.62;97328.28;5031130;28;20222;-76
2023/03/11 10:29:55;;;;;;;2.13;1.00;;;;;;;4.66;57.68;97372.38;5030274;28;20659;-77
2023/03/11 10:32:29;;;;;;;2.60;1.00;;;;;;;4.84;55.40;97351.19;5030905;28;20581;-77
2023/03/11 10:35:04;;;;;;;2.37;1.10;;;;;;;4.89;55.88;97356.16;5030997;28;20237;-82
2023/03/11 10:37:35;;;;;;;3.90;1.13;;;;;;;4.90;57.93;97379.59;5031220;28;20213;-86
2023/03/11 10:40:15;;;;;;;2.57;1.27;;;;;;;5.00;58.62;97390.41;5030887;28;20235;-86
2023/03/11 10:42:46;;;;;;;1.73;1.00;;;;;;;4.98;56.45;97346.00;5031361;28;20208;-84
2023/03/11 10:45:14;;;;;;;2.00;1.20;;;;;;;4.99;57.56;97368.63;5031029;28;20247;-87
2023/03/11 10:47:40;;;;;;;2.10;0.90;;;;;;;5.13;56.18;97360.78;5031471;28;20211;-83
2023/03/11 10:50:11;;;;;;;2.57;0.90;;;;;;;5.48;54.89;97350.78;5031099;28;20218;-83
2023/03/11 10:52:44;;;;;;;2.10;0.70;;;;;;;5.79;51.76;97298.97;5031385;28;20197;-88
2023/03/11 10:55:18;;;;;;;1.57;0.60;;;;;;;6.20;52.92;97331.31;5031184;28;20240;-88
2023/03/11 10:57:46;;;;;;;1.00;0.70;;;;;;;6.31;52.20;97325.34;5031282;28;20273;-82
2023/03/11 11:00:30;;;;;;;2.27;0.93;;;;;;;6.33;50.93;97308.56;5030938;28;20213;-85
2023/03/11 11:02:58;;;;;;;2.60;1.27;;;;;;;6.15;50.08;97296.66;5031141;28;20283;-85
2023/03/11 11:05:31;;;;;;;3.83;1.20;;;;;;;6.09;52.10;97339.00;5031346;28;20235;-84
2023/03/11 11:08:06;;;;;;;1.50;1.10;;;;;;;5.73;52.63;97341.31;5031361;28;20200;-84
2023/03/11 11:10:39;;;;;;;2.50;1.03;;;;;;;5.55;52.38;97345.06;5031224;28;20230;-84
2023/03/11 11:13:18;;;;;;;3.20;1.17;;;;;;;5.40;52.81;97347.78;5031079;28;20594;-84
2023/03/11 11:15:57;;;;;;;1.47;0.90;;;;;;;5.11;52.82;97344.31;5031266;28;20262;-83
2023/03/11 11:18:26;;;;;;;3.07;1.00;;;;;;;5.22;52.25;97339.28;5031405;28;20227;-83
2023/03/11 11:21:02;;;;;;;2.50;0.93;;;;;;;5.19;51.66;97331.59;5031384;28;20222;-87
2023/03/11 11:23:33;;;;;;;1.27;0.90;;;;;;;5.11;51.04;97336.47;5031198;28;20216;-86
2023/03/11 11:26:04;;;;;;;1.30;0.93;;;;;;;5.17;50.84;97325.63;5031110;28;20229;-83
2023/03/11 11:28:32;;;;;;;2.93;0.87;;;;;;;5.30;50.17;97325.69;5033136;28;20210;-80
2023/03/11 11:31:01;;;;;;;0.93;0.60;;;;;;;5.46;51.57;97335.16;5034960;28;20257;-80
2023/03/11 11:33:30;;;;;;;1.90;0.90;;;;;;;5.62;49.98;97314.09;5035091;28;20209;-82
2023/03/11 11:35:59;;;;;;;2.60;0.80;;;;;;;5.82;48.99;97309.31;5034799;28;20235;-80
2023/03/11 11:38:28;;;;;;;1.40;0.80;;;;;;;5.96;48.73;97306.66;5034701;28;20231;-80
2023/03/11 11:40:57;;;;;;;1.13;0.70;;;;;;;6.18;49.01;97321.84;5034539;28;20219;-80
2023/03/11 11:43:38;;;;;;;3.30;1.10;;;;;;;6.20;46.89;97294.56;5035120;28;20207;-80
2023/03/11 11:46:11;;;;;;;2.43;1.00;;;;;;;6.08;46.97;97287.50;5034714;28;20254;-78
2023/03/11 11:48:47;;;;;;;1.17;0.70;;;;;;;6.03;48.62;97307.06;5034611;28;20243;-82